Latest Weather Observations for Beaudesert AWS

IDQ60901

Issued at 10:25 pm EST Wednesday 26 November 2014 (issued every 10 minutes, with the page automatically refreshed every 10 minutes)

About weather observations | Map of Brisbane area stations | Latest observations for Brisbane area | Other Formats
Station Details ID: 040983 Name: BEAUDESERT DRUMLEY STREET Lat: -27.97 Lon: 152.99 Height: 47.81 m
Data from the previous 72 hours. | See also: Recent months at Beaudesert AWS
Date/Time
EST
Tmp

°C
App
Tmp
°C
Dew
Point
°C
Rel
Hum
%
Delta-T

°C
Wind Press
QNH
hPa
Press
MSL
hPa
Rain
since
9 am
mm
Dir
 
Spd
km/h
Gust
km/h
Spd
kts
Gust
kts
26/10:00pm 21.1 23.4 19.4 90 1.1 SSW 6 6 3 3 1017.0 1016.8 2.2
26/09:30pm 21.2 24.2 19.3 89 1.2 ENE 2 6 1 3 1017.1 1016.9 2.2
26/09:00pm 21.5 24.4 19.1 86 1.5 NW 2 6 1 3 1017.2 1017.0 2.0
26/08:30pm 22.1 24.3 19.1 83 1.9 N 6 11 3 6 1017.5 1017.3 1.2
26/08:00pm 22.4 24.6 19.2 82 2.0 W 6 9 3 5 1018.2 1018.0 1.2
26/07:30pm 23.6 25.7 18.9 75 3.0 NE 6 9 3 5 1017.2 1017.0 0.8
26/07:00pm 24.6 26.4 18.3 68 4.0 E 6 9 3 5 1017.2 1017.0 0.8
26/06:30pm 24.9 26.6 18.1 66 4.3 ESE 6 9 3 5 1017.1 1016.9 0.8
26/06:00pm 25.2 26.5 18.4 66 4.3 E 9 17 5 9 1016.5 1016.3 0.8
26/05:30pm 25.5 25.5 18.2 64 4.6 E 15 22 8 12 1015.7 1015.5 0.8
26/05:00pm 26.0 26.1 18.4 63 4.8 E 15 26 8 14 1015.2 1015.0 0.8
26/04:30pm 26.1 25.8 18.2 61 5.0 E 17 28 9 15 1014.9 1014.7 0.8
26/04:00pm 26.9 27.2 18.7 60 5.3 E 15 26 8 14 1014.9 1014.7 0.8
26/03:30pm 27.1 27.6 19.2 62 5.1 E 15 22 8 12 1014.8 1014.6 0.8
26/03:00pm 27.4 28.3 19.2 61 5.3 E 13 19 7 10 1014.8 1014.6 0.8
26/02:30pm 27.6 30.9 20.7 66 4.6 ESE 4 11 2 6 1014.8 1014.6 0.8
26/02:00pm 27.1 30.2 20.2 66 4.5 W 4 11 2 6 1015.0 1014.8 0.6
26/01:30pm 26.4 29.1 20.3 69 4.0 NE 6 9 3 5 1015.2 1015.0 0.2
26/01:00pm 28.3 30.3 18.7 56 6.2 S 6 11 3 6 1015.3 1015.1 0.2
26/12:30pm 27.6 27.8 18.6 58 5.8 SW 15 20 8 11 1015.8 1015.6 0.2
26/12:00pm 28.2 29.8 18.3 55 6.3 W 7 17 4 9 1016.1 1015.9 0.2
26/11:30am 29.1 29.8 17.9 50 7.1 WNW 11 22 6 12 1016.2 1016.0 0.2
26/11:00am 28.4 29.5 18.8 56 6.2 NW 11 19 6 10 1016.5 1016.3 0.2
26/10:30am 28.3 29.8 17.5 52 6.8 N 6 11 3 6 1016.5 1016.3 0.2
26/10:00am 28.3 29.2 17.5 52 6.8 E 9 15 5 8 1016.6 1016.4 0.2
26/09:30am 28.0 29.5 18.1 55 6.3 E 7 13 4 7 1016.9 1016.7 0.2
26/09:00am 26.7 28.9 18.3 60 5.3 NE 4 9 2 5 1017.1 1016.9 0.6
26/08:30am 25.6 29.0 19.3 68 4.1 CALM 0 2 0 1 1017.3 1017.1 0.6
26/08:00am 24.8 27.7 19.0 70 3.7 NNE 2 7 1 4 1017.5 1017.3 0.6
26/07:30am 24.5 28.0 19.6 74 3.2 CALM 0 0 0 0 1017.4 1017.2 0.6
26/07:00am 23.9 26.9 19.2 75 3.0 SSW 2 6 1 3 1017.3 1017.1 0.6
26/06:30am 23.0 26.0 19.2 79 2.4 SW 2 4 1 2 1017.1 1016.9 0.6
26/06:00am 22.5 25.0 19.1 81 2.2 SW 4 7 2 4 1016.9 1016.7 0.6
26/05:30am 22.1 24.8 19.5 85 1.7 SSE 4 6 2 3 1016.5 1016.3 0.6
26/05:00am 21.7 24.7 19.3 86 1.5 S 2 4 1 2 1016.3 1016.1 0.6
26/04:30am 21.5 24.1 19.2 87 1.5 SSW 4 6 2 3 1016.2 1016.0 0.6
26/04:00am 21.4 23.9 19.1 87 1.5 SSE 4 7 2 4 1015.8 1015.6 0.6
26/03:30am 21.4 23.3 19.0 86 1.5 S 7 13 4 7 1015.6 1015.4 0.6
26/03:00am 21.5 23.5 18.7 84 1.8 S 6 9 3 5 1015.6 1015.4 0.4
26/02:30am 22.8 24.6 18.3 76 2.8 S 6 7 3 4 1015.7 1015.5 0.0
26/02:00am 22.8 24.9 18.1 75 2.9 S 4 7 2 4 1015.6 1015.4 0.0
26/01:30am 23.4 25.5 18.1 72 3.3 WNW 4 6 2 3 1015.6 1015.4 0.0
26/01:00am 23.8 26.6 18.0 70 3.6 CALM 0 4 0 2 1015.6 1015.4 0.0
26/12:30am 23.8 26.2 18.0 70 3.6 ESE 2 4 1 2 1016.0 1015.8 0.0
26/12:00am 23.9 25.9 17.9 69 3.8 S 4 6 2 3 1016.9 1016.7 0.0
 
Date/Time
EST
Tmp

°C
App
Tmp
°C
Dew
Point
°C
Rel
Hum
%
Delta-T

°C
Wind Press
QNH
hPa
Press
MSL
hPa
Rain
since
9 am
mm
Dir
 
Spd
km/h
Gust
km/h
Spd
kts
Gust
kts
25/11:30pm 24.3 26.0 18.0 68 4.0 SW 6 9 3 5 1017.7 1017.5 0.0
25/11:00pm 24.6 26.1 18.1 67 4.1 SW 7 11 4 6 1017.9 1017.7 0.0
25/10:30pm 25.1 27.5 18.8 68 4.0 E 4 6 2 3 1017.9 1017.7 0.0
25/10:00pm 25.1 27.1 18.8 68 4.0 ESE 6 13 3 7 1017.8 1017.6 0.0
25/09:30pm 25.3 26.2 18.5 66 4.3 ESE 11 17 6 9 1017.4 1017.2 0.0
25/09:00pm 25.7 26.6 18.4 64 4.6 E 11 17 6 9 1017.1 1016.9 0.0
25/08:30pm 25.9 25.9 18.1 62 4.9 E 15 22 8 12 1016.9 1016.7 0.0
25/08:00pm 26.6 26.1 17.7 58 5.6 E 17 26 9 14 1016.2 1016.0 0.0
25/07:30pm 27.3 28.9 18.3 58 5.7 E 7 17 4 9 1015.2 1015.0 0.0
25/07:00pm 26.6 28.0 17.9 59 5.5 SSW 7 15 4 8 1014.6 1014.4 0.0
25/06:30pm 27.8 28.5 17.0 51 6.8 SE 9 22 5 12 1014.0 1013.8 0.0
25/06:00pm 29.6 29.6 15.3 41 8.8 E 9 19 5 10 1013.1 1012.9 0.0
25/05:30pm 31.0 30.4 14.6 37 10.0 NNE 11 20 6 11 1011.3 1011.1 0.0
25/05:00pm 32.2 30.6 13.9 33 11.1 N 15 26 8 14 1010.6 1010.4 0.0
25/04:30pm 33.5 31.7 14.5 31 11.7 N 17 26 9 14 1010.5 1010.3 0.0
25/04:00pm 34.2 32.5 14.7 31 12.1 NNE 17 28 9 15 1010.3 1010.1 0.0
25/03:30pm 35.6 33.5 14.8 28 13.0 N 19 30 10 16 1009.9 1009.7 0.0
25/03:00pm 36.2 36.2 13.6 25 13.9 NNW 6 13 3 7 1010.0 1009.8 0.0
25/02:30pm 36.5 37.0 15.0 27 13.5 SW 6 11 3 6 1010.4 1010.2 0.0
25/02:00pm 35.3 35.5 14.6 29 12.9 WNW 7 15 4 8 1010.8 1010.6 0.0
25/01:30pm 34.8 34.8 14.1 28 12.7 W 7 17 4 9 1011.2 1011.0 0.0
25/01:00pm 34.6 35.1 15.5 32 12.0 W 7 15 4 8 1011.5 1011.3 0.0
25/12:30pm 33.8 34.4 15.7 33 11.4 WNW 7 13 4 7 1012.2 1012.0 0.0
25/12:00pm 33.4 34.0 15.4 34 11.2 WNW 6 15 3 8 1012.7 1012.5 0.0
25/11:30am 32.0 32.7 15.5 37 10.3 N 6 11 3 6 1013.3 1013.1 0.0
25/11:00am 31.6 32.5 16.7 40 9.4 N 7 17 4 9 1013.8 1013.6 0.0
25/10:30am 30.4 30.7 16.0 41 9.0 NNW 9 17 5 9 1014.4 1014.2 0.0
25/10:00am 29.7 31.2 17.5 48 7.7 NNW 6 15 3 8 1014.9 1014.7 0.0
25/09:30am 27.7 27.8 16.6 50 6.9 W 11 17 6 9 1015.5 1015.3 0.0
25/09:00am 27.6 28.1 16.6 51 6.8 NNW 9 19 5 10 1015.5 1015.3 0.0
25/08:30am 27.2 27.4 16.8 53 6.5 NNW 11 20 6 11 1015.5 1015.3 0.0
25/08:00am 26.3 27.0 17.1 57 5.7 NW 9 19 5 10 1015.8 1015.6 0.0
25/07:30am 25.7 26.8 18.1 63 4.8 NNW 9 17 5 9 1015.8 1015.6 0.0
25/07:00am 24.9 25.5 17.6 64 4.6 NNW 11 19 6 10 1015.8 1015.6 0.0
25/06:30am 23.9 25.4 18.1 70 3.6 N 7 11 4 6 1015.7 1015.5 0.0
25/06:00am 23.1 25.5 18.8 77 2.7 NE 4 7 2 4 1015.4 1015.2 0.0
25/05:30am 21.6 23.9 18.6 83 1.9 NNE 4 6 2 3 1015.3 1015.1 0.0
25/05:00am 21.3 24.2 18.3 83 1.9 CALM 0 4 0 2 1015.0 1014.8 0.0
25/04:30am 21.6 23.8 18.4 82 2.0 N 4 6 2 3 1014.7 1014.5 0.0
25/04:00am 21.8 24.9 18.6 82 2.0 CALM 0 0 0 0 1014.2 1014.0 0.0
25/03:30am 22.4 24.8 18.8 80 2.3 N 4 7 2 4 1014.0 1013.8 0.0
25/03:00am 22.0 25.0 18.4 80 2.3 CALM 0 2 0 1 1014.1 1013.9 0.0
25/02:30am 22.4 24.7 18.6 79 2.4 N 4 6 2 3 1014.1 1013.9 0.0
25/02:00am 22.6 24.9 18.6 78 2.5 N 4 7 2 4 1014.0 1013.8 0.0
25/01:30am 23.1 25.3 18.4 75 3.0 N 4 9 2 5 1014.1 1013.9 0.0
25/01:00am 23.7 24.8 18.8 74 3.1 N 11 20 6 11 1014.4 1014.2 0.0
25/12:30am 24.0 25.7 18.6 72 3.4 N 7 13 4 7 1014.6 1014.4 0.0
25/12:00am 24.1 25.4 18.5 71 3.5 N 9 19 5 10 1014.8 1014.6 0.0
 
Date/Time
EST
Tmp

°C
App
Tmp
°C
Dew
Point
°C
Rel
Hum
%
Delta-T

°C
Wind Press
QNH
hPa
Press
MSL
hPa
Rain
since
9 am
mm
Dir
 
Spd
km/h
Gust
km/h
Spd
kts
Gust
kts
24/11:30pm 24.3 25.3 18.7 71 3.6 NNE 11 24 6 13 1014.8 1014.6 0.0
24/11:00pm 24.5 26.4 18.9 71 3.6 NNE 7 19 4 10 1015.1 1014.9 0.0
24/10:30pm 24.7 26.7 19.1 71 3.6 N 7 15 4 8 1015.3 1015.1 0.0
24/10:00pm 24.6 25.8 19.0 71 3.6 NNE 11 20 6 11 1015.4 1015.2 0.0
24/09:30pm 24.5 26.4 18.9 71 3.6 NNE 7 15 4 8 1015.3 1015.1 0.0
24/09:00pm 24.5 26.0 18.9 71 3.6 NNE 9 15 5 8 1015.1 1014.9 0.0
24/08:30pm 24.4 25.9 19.0 72 3.4 NNE 9 17 5 9 1014.6 1014.4 0.0
24/08:00pm 24.3 25.4 18.9 72 3.4 NNE 11 20 6 11 1014.3 1014.1 0.0
24/07:30pm 24.5 26.4 18.9 71 3.6 NNE 7 15 4 8 1014.0 1013.8 0.0
24/07:00pm 24.9 26.0 17.9 65 4.4 NNE 9 17 5 9 1013.4 1013.2 0.0
24/06:30pm 25.6 25.4 17.5 61 5.1 N 15 24 8 13 1012.8 1012.6 0.0
24/06:00pm 26.8 26.2 17.6 57 5.8 N 17 26 9 14 1012.4 1012.2 0.0
24/05:30pm 28.3 27.7 17.5 52 6.8 N 17 28 9 15 1012.0 1011.8 0.0
24/05:00pm 29.2 28.0 17.1 48 7.6 N 19 32 10 17 1011.7 1011.5 0.0
24/04:30pm 30.5 29.3 16.1 41 9.0 NNE 17 32 9 17 1011.3 1011.1 0.0
24/04:00pm 32.3 31.3 15.7 36 10.4 N 15 30 8 16 1011.2 1011.0 0.0
24/03:30pm 32.8 31.3 15.3 34 10.9 N 17 28 9 15 1011.4 1011.2 0.0
24/03:00pm 32.8 31.2 14.9 34 11.1 N 17 28 9 15 1011.8 1011.6 0.0
24/02:30pm 33.5 32.3 14.0 30 11.9 N 13 24 7 13 1012.0 1011.8 0.0
24/02:00pm 34.1 32.9 14.1 30 12.3 N 13 22 7 12 1012.6 1012.4 0.0
24/01:30pm 34.0 33.8 13.5 29 12.5 N 7 19 4 10 1013.1 1012.9 0.0
24/01:00pm 34.4 34.5 13.8 29 12.6 N 6 15 3 8 1013.6 1013.4 0.0
24/12:30pm 33.2 31.6 12.8 29 12.2 NNW 13 22 7 12 1014.1 1013.9 0.0
24/12:00pm 32.7 32.2 13.8 31 11.5 NNE 9 19 5 10 1014.7 1014.5 0.0
24/11:30am 32.1 31.6 13.8 33 11.1 NNE 9 15 5 8 1015.3 1015.1 0.0
24/11:00am 31.5 31.0 15.0 36 10.2 NNW 11 17 6 9 1015.9 1015.7 0.0
24/10:30am 30.7 31.0 15.9 40 9.2 WNW 9 19 5 10 1016.4 1016.2 0.0
24/10:00am 30.4 31.2 16.4 43 8.8 NW 7 15 4 8 1016.8 1016.6 0.0
24/09:30am 29.4 29.8 16.2 44 8.2 NNW 9 19 5 10 1017.4 1017.2 0.0
24/09:00am 28.5 28.4 16.1 47 7.7 N 11 20 6 11 1017.6 1017.4 0.0
24/08:30am 27.5 27.7 16.8 52 6.7 N 11 20 6 11 1017.7 1017.5 0.0
24/08:00am 27.4 27.7 17.0 53 6.5 N 11 17 6 9 1017.9 1017.7 0.0
24/07:30am 26.5 27.6 18.1 60 5.3 NNW 9 15 5 8 1018.1 1017.9 0.0
24/07:00am 25.4 26.0 17.8 62 4.8 N 11 22 6 12 1018.0 1017.8 0.0
24/06:30am 24.8 25.7 18.3 67 4.1 N 11 20 6 11 1017.8 1017.6 0.0
24/06:00am 23.9 25.6 18.5 72 3.4 N 7 11 4 6 1017.6 1017.4 0.0
24/05:30am 23.1 25.8 18.6 76 2.8 NNE 2 4 1 2 1017.5 1017.3 0.0
24/05:00am 22.3 24.9 18.5 79 2.4 N 2 6 1 3 1017.3 1017.1 0.0
24/04:30am 22.7 24.8 18.9 79 2.4 N 6 11 3 6 1016.9 1016.7 0.0
24/04:00am 23.0 25.5 19.0 78 2.5 NNE 4 9 2 5 1016.6 1016.4 0.0
24/03:30am 23.6 25.6 19.1 76 2.9 NNE 7 15 4 8 1016.5 1016.3 0.0
24/03:00am 24.1 25.7 19.2 74 3.1 N 9 17 5 9 1016.4 1016.2 0.0
24/02:30am 24.3 25.1 19.1 73 3.3 N 13 22 7 12 1016.5 1016.3 0.0
24/02:00am 24.5 27.4 19.8 75 3.0 N 4 9 2 5 1016.4 1016.2 0.0
24/01:30am 24.2 27.4 19.7 76 2.9 NE 2 6 1 3 1016.2 1016.0 0.0
24/01:00am 24.1 27.3 19.8 77 2.8 E 2 4 1 2 1016.4 1016.2 0.0
24/12:30am 23.8 27.2 19.3 76 2.9 CALM 0 0 0 0 1016.9 1016.7 0.0
24/12:00am 23.8 26.8 19.3 76 2.9 E 2 4 1 2 1017.0 1016.8 0.0
 
Date/Time
EST
Tmp

°C
App
Tmp
°C
Dew
Point
°C
Rel
Hum
%
Delta-T

°C
Wind Press
QNH
hPa
Press
MSL
hPa
Rain
since
9 am
mm
Dir
 
Spd
km/h
Gust
km/h
Spd
kts
Gust
kts
23/11:30pm 24.0 26.6 19.3 75 3.0 ENE 4 7 2 4 1017.2 1017.0 0.0
23/11:00pm 24.1 26.8 19.4 75 3.0 E 4 6 2 3 1017.2 1017.0 0.0
23/10:30pm 23.6 26.1 19.1 76 2.9 E 4 6 2 3 1017.0 1016.8 0.0

Latest Capital City Observations: Canberra | Sydney | Melbourne | Brisbane | Adelaide | Perth | Hobart | Darwin

Other Formats:

Comma delimited format used in spreadsheet applications
http://www.bom.gov.au/fwo/IDQ60901/IDQ60901.95575.axf

JavaScript Object Notation format (JSON) in row-major order
http://www.bom.gov.au/fwo/IDQ60901/IDQ60901.95575.json